NIR weather

Chase Field Industrial Airport
Beeville, Texas, United States

Public forecast

Using degrees Fahrenheit for public forecast. Weather courtesy of forecast.io.

Closest aviation weather report (METAR) to Chase Field Industrial Airport

Report is more than 6 hours old.

Closest report is Beeville Municipal Airport, 6.8 nm (12.6 km) W. Retrieved 2019/10/22 08:55 UTC (3 months ago):

KBEA 220855Z AUTO 03005KT 10SM CLR 16/07 A3005 RMK AO2 T01560070

Closest aviation forecast (TAF) to Chase Field Industrial Airport

Closest forecast is Corpus Christi International Airport, 36.6 nm (67.7 km) SSE. Retrieved 2020/01/25 06:39 UTC (1 hour ago):

TAF KCRP 250536Z 2506/2606 VRB05KT P6SM SCT080 FM251600 14014G20KT P6SM SCT025 BKN070 FM251900 14015G22KT P6SM -RA VCSH BKN025 OVC050 FM260100 13010KT P6SM -RA VCSH OVC005